Time;durP1;ratioP1;P1;durP2;ratioP2;P2;SDS_P1;SDS_P2;PMS_P1;PMS_P2;Temp;Humidity;BMP_temperature;BMP_pressure;BME280_temperature;BME280_humidity;BME280_pressure;Samples;Min_cycle;Max_cycle;Signal;HPM_P1;HPM_P2
2021/09/15 00:02:13;;;;;;;2.55;1.25;;;15.20;53.30;;;;;;5058428;28;20241;-44
2021/09/15 00:04:43;;;;;;;1.90;1.25;;;15.20;53.30;;;;;;5071215;28;20223;-44
2021/09/15 00:07:15;;;;;;;4.07;1.48;;;15.20;53.30;;;;;;5072313;28;20241;-50
2021/09/15 00:09:45;;;;;;;1.55;1.10;;;15.20;53.30;;;;;;5072145;28;20298;-48
2021/09/15 00:12:15;;;;;;;1.70;1.10;;;15.30;53.30;;;;;;5070770;28;20769;-48
2021/09/15 00:14:44;;;;;;;1.85;1.30;;;15.30;53.30;;;;;;5071652;28;20273;-53
2021/09/15 00:17:14;;;;;;;3.55;1.35;;;15.30;53.20;;;;;;5072239;28;20237;-45
2021/09/15 00:19:44;;;;;;;3.03;1.20;;;15.30;53.20;;;;;;5071393;28;20285;-45
2021/09/15 00:22:15;;;;;;;1.80;1.00;;;15.40;53.20;;;;;;5071117;28;20262;-44
2021/09/15 00:24:45;;;;;;;2.42;1.00;;;15.40;53.20;;;;;;5072144;28;20265;-44
2021/09/15 00:27:14;;;;;;;2.28;1.13;;;15.40;53.60;;;;;;5069491;28;20238;-44
2021/09/15 00:29:44;;;;;;;3.30;1.15;;;15.50;54.40;;;;;;5071463;28;20210;-45
2021/09/15 00:32:14;;;;;;;1.35;0.80;;;15.50;54.60;;;;;;5070880;28;20253;-45
2021/09/15 00:34:44;;;;;;;2.78;1.02;;;15.60;54.70;;;;;;5069148;28;20230;-45
2021/09/15 00:37:15;;;;;;;2.13;1.08;;;15.60;54.40;;;;;;5070859;28;20276;-46
2021/09/15 00:39:44;;;;;;;2.50;1.00;;;15.60;54.10;;;;;;5069650;28;20245;-53
2021/09/15 00:42:14;;;;;;;2.45;1.10;;;15.70;54.00;;;;;;5071491;28;20257;-43
2021/09/15 00:44:44;;;;;;;4.22;1.00;;;15.70;53.90;;;;;;5069205;28;20301;-45
2021/09/15 00:47:14;;;;;;;3.10;1.50;;;15.70;54.60;;;;;;5070972;28;20669;-44
2021/09/15 00:49:44;;;;;;;2.42;1.08;;;15.80;55.00;;;;;;5070492;28;20648;-46
2021/09/15 00:52:14;;;;;;;2.33;1.13;;;15.90;55.00;;;;;;5070761;28;20292;-46
2021/09/15 00:54:44;;;;;;;1.85;0.98;;;15.90;55.00;;;;;;5070149;28;20245;-59
2021/09/15 00:57:14;;;;;;;3.47;0.90;;;15.90;54.70;;;;;;5071280;28;20320;-46
2021/09/15 00:59:44;;;;;;;3.20;1.48;;;16.00;54.50;;;;;;5070801;28;20245;-45
2021/09/15 01:02:13;;;;;;;2.17;0.90;;;16.00;54.30;;;;;;5071235;28;20271;-47
2021/09/15 01:04:43;;;;;;;2.90;0.90;;;16.00;54.20;;;;;;5069911;28;20269;-49
2021/09/15 01:07:13;;;;;;;2.50;1.23;;;16.00;54.10;;;;;;5071182;28;20335;-43
2021/09/15 01:09:44;;;;;;;2.28;1.00;;;16.00;54.00;;;;;;5071173;28;20242;-53
2021/09/15 01:12:14;;;;;;;1.67;0.90;;;16.00;53.90;;;;;;5070591;28;20254;-45
2021/09/15 01:14:44;;;;;;;2.53;1.00;;;16.10;53.80;;;;;;5070683;28;20480;-45
2021/09/15 01:17:13;;;;;;;2.20;0.98;;;16.10;53.70;;;;;;5070018;28;20340;-45
2021/09/15 01:19:43;;;;;;;1.30;1.00;;;16.10;53.60;;;;;;5070489;28;20317;-47
2021/09/15 01:22:14;;;;;;;2.28;1.00;;;16.10;53.50;;;;;;5070317;28;20710;-43
2021/09/15 01:24:44;;;;;;;2.08;0.90;;;16.10;53.40;;;;;;5069254;28;20262;-45
2021/09/15 01:27:13;;;;;;;1.60;1.05;;;16.20;54.10;;;;;;5071527;28;20230;-47
2021/09/15 01:29:44;;;;;;;3.58;1.00;;;16.20;53.40;;;;;;5070510;28;20285;-44
2021/09/15 01:32:14;;;;;;;2.80;0.98;;;16.20;53.40;;;;;;5071013;28;20270;-44
2021/09/15 01:34:44;;;;;;;2.22;1.10;;;16.20;53.30;;;;;;5071045;28;20306;-44
2021/09/15 01:37:17;;;;;;;2.03;0.90;;;16.30;53.20;;;;;;5070999;28;20234;-45
2021/09/15 01:39:47;;;;;;;1.83;1.00;;;16.30;53.10;;;;;;5071177;28;20242;-47
2021/09/15 01:42:17;;;;;;;1.88;1.10;;;16.30;53.00;;;;;;5071058;28;20238;-45
2021/09/15 01:44:47;;;;;;;3.13;1.23;;;16.30;53.00;;;;;;5070287;28;20257;-46
2021/09/15 01:47:17;;;;;;;3.97;1.00;;;16.30;52.90;;;;;;5070464;28;20732;-48
2021/09/15 01:49:47;;;;;;;3.25;0.90;;;16.30;52.90;;;;;;5067393;28;20755;-48
2021/09/15 01:52:18;;;;;;;5.00;1.10;;;16.30;52.80;;;;;;5069005;28;20267;-57
2021/09/15 01:54:48;;;;;;;2.55;0.93;;;16.40;52.80;;;;;;5070557;28;20296;-50
2021/09/15 01:57:18;;;;;;;2.80;1.02;;;16.40;52.80;;;;;;5069466;28;20242;-46
2021/09/15 01:59:47;;;;;;;2.60;0.85;;;16.40;52.80;;;;;;5069024;28;20255;-45
2021/09/15 02:02:17;;;;;;;3.75;1.00;;;16.40;52.80;;;;;;5070545;28;20265;-46
2021/09/15 02:04:47;;;;;;;2.40;0.88;;;16.40;52.70;;;;;;5069225;28;20333;-49
2021/09/15 02:07:18;;;;;;;2.25;0.73;;;16.40;52.60;;;;;;5069006;28;20445;-44
2021/09/15 02:09:48;;;;;;;1.73;1.10;;;16.50;52.70;;;;;;5069126;28;20629;-49
2021/09/15 02:12:17;;;;;;;2.53;0.90;;;16.50;52.60;;;;;;5070457;28;20265;-56
2021/09/15 02:14:47;;;;;;;2.28;0.98;;;16.50;52.50;;;;;;5069730;28;20276;-49
2021/09/15 02:17:17;;;;;;;5.55;1.30;;;16.50;52.40;;;;;;5069611;28;20669;-54
2021/09/15 02:19:47;;;;;;;1.77;1.00;;;16.50;52.30;;;;;;5068147;28;20247;-48
2021/09/15 02:22:17;;;;;;;3.20;1.30;;;16.50;52.30;;;;;;5070133;28;20735;-46
2021/09/15 02:24:47;;;;;;;2.80;0.90;;;16.50;52.20;;;;;;5068517;28;20269;-44
2021/09/15 02:27:17;;;;;;;1.60;0.77;;;16.60;52.20;;;;;;5069249;28;20685;-51
2021/09/15 02:29:47;;;;;;;1.02;0.63;;;16.60;52.20;;;;;;5067299;28;20237;-54
2021/09/15 02:32:17;;;;;;;1.92;1.08;;;16.60;52.20;;;;;;5069015;28;20664;-58
2021/09/15 02:34:47;;;;;;;2.83;0.88;;;16.60;52.20;;;;;;5068594;28;20243;-53
2021/09/15 02:37:19;;;;;;;1.88;0.98;;;16.60;52.20;;;;;;5068978;28;20211;-52
2021/09/15 02:39:49;;;;;;;2.53;0.90;;;16.70;52.20;;;;;;5070051;28;20213;-49
2021/09/15 02:42:18;;;;;;;2.25;0.77;;;16.70;52.20;;;;;;5069099;28;20227;-51
2021/09/15 02:44:51;;;;;;;2.03;0.90;;;16.70;52.20;;;;;;5068813;28;20582;-55
2021/09/15 02:47:21;;;;;;;1.70;0.73;;;16.80;52.20;;;;;;5069828;28;20286;-53
2021/09/15 02:49:51;;;;;;;1.83;0.77;;;16.80;52.10;;;;;;5068760;28;20237;-53
2021/09/15 02:52:21;;;;;;;2.95;0.90;;;16.80;52.00;;;;;;5069095;28;20267;-48
2021/09/15 02:54:51;;;;;;;1.77;0.70;;;16.80;51.90;;;;;;5069365;28;20407;-51
2021/09/15 02:57:21;;;;;;;1.85;0.95;;;16.80;51.70;;;;;;5069451;28;20242;-54
2021/09/15 02:59:51;;;;;;;0.95;0.63;;;16.90;51.70;;;;;;5068714;28;20297;-54
2021/09/15 03:02:20;;;;;;;1.95;0.98;;;16.90;51.70;;;;;;5068778;28;20691;-49
2021/09/15 03:04:50;;;;;;;0.73;0.63;;;16.90;51.60;;;;;;5069282;28;20273;-55
2021/09/15 03:07:21;;;;;;;1.65;0.80;;;16.90;51.50;;;;;;5068951;28;20233;-47
2021/09/15 03:09:51;;;;;;;2.95;1.10;;;16.90;51.40;;;;;;5068638;28;20202;-56
2021/09/15 03:12:21;;;;;;;2.60;0.93;;;17.00;51.50;;;;;;5069451;28;20667;-52
2021/09/15 03:14:50;;;;;;;2.97;0.98;;;17.00;51.40;;;;;;5069681;28;20295;-54
2021/09/15 03:17:20;;;;;;;1.10;0.70;;;17.10;51.50;;;;;;5069532;28;20293;-44
2021/09/15 03:19:50;;;;;;;4.30;0.80;;;17.10;51.50;;;;;;5069167;28;20269;-43
2021/09/15 03:22:21;;;;;;;1.55;0.88;;;17.20;51.40;;;;;;5069392;28;20250;-47
2021/09/15 03:24:50;;;;;;;1.55;0.73;;;17.20;51.30;;;;;;5067236;28;20254;-48
2021/09/15 03:27:20;;;;;;;2.15;0.85;;;17.30;51.10;;;;;;5049047;28;20239;-54
2021/09/15 03:29:50;;;;;;;2.45;1.10;;;17.30;50.90;;;;;;5053818;28;20701;-46
2021/09/15 03:32:20;;;;;;;2.38;0.80;;;17.30;50.80;;;;;;5067489;28;20265;-55
2021/09/15 03:34:49;;;;;;;2.38;0.80;;;17.30;50.90;;;;;;5068830;28;20751;-50
2021/09/15 03:37:20;;;;;;;1.95;0.95;;;17.30;50.90;;;;;;5068609;28;20258;-48
2021/09/15 03:39:50;;;;;;;1.25;0.60;;;17.40;50.80;;;;;;5066645;28;20686;-47
2021/09/15 03:42:20;;;;;;;2.05;0.90;;;17.40;50.60;;;;;;5068543;28;20269;-45
2021/09/15 03:44:50;;;;;;;2.08;0.93;;;17.40;50.60;;;;;;5068719;28;20309;-51
2021/09/15 03:47:19;;;;;;;2.38;0.88;;;17.40;50.60;;;;;;5070680;28;20249;-46
2021/09/15 03:49:49;;;;;;;1.23;0.68;;;17.40;50.60;;;;;;5072126;28;20246;-45
2021/09/15 03:52:19;;;;;;;1.65;0.57;;;17.40;50.60;;;;;;5072032;28;20328;-47
2021/09/15 03:54:50;;;;;;;2.10;0.80;;;17.40;50.50;;;;;;5053431;28;20265;-47
2021/09/15 03:57:20;;;;;;;2.33;0.90;;;17.40;50.50;;;;;;5072552;28;20549;-48
2021/09/15 03:59:49;;;;;;;2.15;0.70;;;17.50;50.50;;;;;;5072207;28;20241;-52
2021/09/15 04:02:19;;;;;;;2.60;0.90;;;17.50;50.40;;;;;;5071688;28;20223;-51
2021/09/15 04:04:49;;;;;;;1.88;0.88;;;17.50;50.20;;;;;;5054050;28;20255;-54
2021/09/15 04:07:19;;;;;;;2.03;0.70;;;17.50;50.20;;;;;;5051537;28;20564;-48
2021/09/15 04:09:50;;;;;;;1.40;0.80;;;17.50;50.20;;;;;;5061972;28;20218;-51
2021/09/15 04:12:19;;;;;;;1.83;0.60;;;17.60;50.20;;;;;;5070940;28;20704;-50
2021/09/15 04:14:49;;;;;;;1.15;0.80;;;17.60;50.20;;;;;;5070406;28;20314;-50
2021/09/15 04:17:19;;;;;;;1.35;0.93;;;17.60;50.20;;;;;;5071490;28;20238;-53
2021/09/15 04:19:49;;;;;;;0.90;0.50;;;17.60;50.20;;;;;;5071087;28;20290;-53
2021/09/15 04:22:20;;;;;;;2.88;0.90;;;17.60;50.10;;;;;;5071750;28;20323;-55
2021/09/15 04:33:12;;;;;;;1.50;0.65;;;17.70;50.00;;;;;;5065441;28;20580;-56
2021/09/15 04:35:42;;;;;;;1.58;0.68;;;17.70;50.00;;;;;;5068227;28;20242;-57
2021/09/15 04:38:12;;;;;;;2.15;0.90;;;17.70;50.00;;;;;;5071532;28;20252;-56
2021/09/15 04:40:43;;;;;;;1.42;0.70;;;17.70;50.00;;;;;;5071175;28;20262;-52
2021/09/15 04:43:13;;;;;;;3.22;0.70;;;17.70;49.90;;;;;;5071848;28;20230;-55
2021/09/15 04:45:42;;;;;;;3.55;1.02;;;17.80;49.90;;;;;;5069501;28;20313;-49
2021/09/15 04:48:12;;;;;;;1.27;0.70;;;17.80;49.90;;;;;;5071663;28;20239;-49
2021/09/15 04:50:42;;;;;;;4.80;0.90;;;17.80;49.90;;;;;;5068550;28;20887;-47
2021/09/15 04:53:12;;;;;;;2.60;0.65;;;17.80;49.80;;;;;;5064814;28;20278;-49
2021/09/15 04:55:43;;;;;;;2.95;0.95;;;17.80;49.70;;;;;;5050606;28;20242;-49
2021/09/15 04:58:12;;;;;;;3.08;0.90;;;17.80;49.70;;;;;;5051008;28;20226;-51
2021/09/15 05:00:42;;;;;;;2.28;1.00;;;17.80;49.70;;;;;;5050158;28;20262;-48
2021/09/15 05:03:12;;;;;;;2.40;1.00;;;17.80;49.50;;;;;;5054663;28;20282;-49
2021/09/15 05:05:42;;;;;;;2.90;0.90;;;17.80;49.50;;;;;;5070343;28;20223;-49
2021/09/15 05:08:11;;;;;;;3.03;0.80;;;17.80;49.40;;;;;;5069985;28;20242;-46
2021/09/15 05:10:41;;;;;;;1.90;0.77;;;17.80;49.40;;;;;;5071099;28;20718;-45
2021/09/15 05:13:12;;;;;;;2.90;0.93;;;17.80;49.40;;;;;;5070889;28;20242;-48
2021/09/15 05:15:42;;;;;;;1.75;0.90;;;17.80;49.40;;;;;;5070348;28;20315;-47
2021/09/15 05:18:12;;;;;;;3.05;0.98;;;17.80;49.30;;;;;;5070904;28;20206;-55
2021/09/15 05:20:41;;;;;;;1.55;0.73;;;17.80;49.30;;;;;;5069632;28;20881;-53
2021/09/15 05:23:11;;;;;;;4.47;0.95;;;17.80;49.30;;;;;;5070701;28;20238;-56
2021/09/15 05:25:41;;;;;;;2.33;0.95;;;17.80;49.30;;;;;;5070740;28;20280;-53
2021/09/15 05:28:12;;;;;;;1.92;0.60;;;17.80;49.20;;;;;;5071285;28;20662;-48
2021/09/15 05:30:42;;;;;;;2.08;0.90;;;17.80;49.80;;;;;;5070778;28;20280;-50
2021/09/15 05:33:12;;;;;;;2.92;1.00;;;17.90;50.70;;;;;;5071149;28;20234;-56
2021/09/15 05:35:42;;;;;;;2.17;0.63;;;17.90;50.80;;;;;;5070780;28;20206;-52
2021/09/15 05:38:12;;;;;;;1.45;0.80;;;18.00;50.90;;;;;;5070957;28;20238;-53
2021/09/15 05:40:42;;;;;;;1.67;0.73;;;18.00;50.80;;;;;;5070842;28;20227;-53
2021/09/15 05:43:12;;;;;;;2.17;1.20;;;18.00;50.70;;;;;;5070666;28;20230;-52
2021/09/15 05:45:42;;;;;;;2.80;1.30;;;18.00;50.60;;;;;;5069799;28;20222;-54
2021/09/15 05:48:12;;;;;;;2.20;1.27;;;17.90;50.50;;;;;;5070633;28;20211;-55
2021/09/15 05:50:42;;;;;;;3.08;1.50;;;17.90;50.40;;;;;;5070671;28;20292;-57
2021/09/15 05:53:12;;;;;;;3.22;1.20;;;17.90;50.40;;;;;;5071035;28;20329;-55
2021/09/15 05:55:42;;;;;;;1.50;1.02;;;18.00;50.40;;;;;;5070515;28;20217;-48
2021/09/15 05:58:13;;;;;;;2.80;1.58;;;17.90;50.30;;;;;;5070936;28;20238;-55
2021/09/15 06:00:43;;;;;;;2.45;1.52;;;17.90;50.30;;;;;;5070817;28;20262;-49
2021/09/15 06:03:12;;;;;;;1.67;1.20;;;17.90;50.30;;;;;;5070725;28;20249;-46
2021/09/15 06:05:42;;;;;;;3.33;1.38;;;17.90;50.50;;;;;;5070420;28;20223;-53
2021/09/15 06:08:12;;;;;;;2.10;1.42;;;17.90;50.80;;;;;;5070391;28;20245;-50
2021/09/15 06:10:42;;;;;;;1.92;1.23;;;17.90;50.70;;;;;;5070102;28;20262;-52
2021/09/15 06:13:13;;;;;;;3.20;1.67;;;17.90;50.60;;;;;;5070943;28;20715;-51
2021/09/15 06:15:42;;;;;;;1.83;1.33;;;17.90;50.50;;;;;;5070792;28;20287;-49
2021/09/15 06:18:12;;;;;;;4.15;1.63;;;17.90;50.50;;;;;;5070670;28;20252;-47
2021/09/15 06:20:42;;;;;;;2.45;1.20;;;17.90;50.50;;;;;;5070595;28;20315;-50
2021/09/15 06:23:12;;;;;;;2.80;1.13;;;17.80;50.50;;;;;;5070819;28;20238;-48
2021/09/15 06:25:42;;;;;;;3.10;1.23;;;17.80;50.40;;;;;;5068310;28;20268;-52
2021/09/15 06:28:13;;;;;;;2.33;1.48;;;17.80;50.40;;;;;;5067809;28;20224;-49
2021/09/15 06:30:43;;;;;;;1.75;1.10;;;17.80;50.40;;;;;;5067509;28;20211;-48
2021/09/15 06:33:13;;;;;;;2.88;1.52;;;17.70;50.40;;;;;;5069512;28;20295;-57
2021/09/15 06:35:43;;;;;;;2.55;1.20;;;17.80;50.40;;;;;;5053830;28;20234;-54
2021/09/15 06:38:13;;;;;;;3.70;2.40;;;17.70;50.30;;;;;;5049976;28;20292;-55
2021/09/15 06:40:43;;;;;;;10.15;5.03;;;17.70;50.30;;;;;;5066399;28;20229;-58
2021/09/15 06:43:14;;;;;;;6.53;3.58;;;17.70;50.40;;;;;;5069701;28;20680;-51
2021/09/15 06:45:44;;;;;;;13.65;8.23;;;17.70;50.50;;;;;;5069724;28;20241;-46
2021/09/15 06:48:14;;;;;;;17.23;8.38;;;17.70;50.60;;;;;;5069631;28;20203;-53
2021/09/15 06:50:44;;;;;;;18.73;12.30;;;17.70;50.70;;;;;;5069275;28;20230;-54
2021/09/15 06:53:14;;;;;;;13.00;8.52;;;17.60;50.80;;;;;;5066355;28;20244;-54
2021/09/15 06:55:44;;;;;;;13.32;8.80;;;17.60;50.80;;;;;;5069163;28;20701;-51
2021/09/15 06:58:15;;;;;;;14.77;8.98;;;17.60;50.80;;;;;;5068896;28;20242;-51
2021/09/15 07:00:44;;;;;;;11.02;7.25;;;17.50;50.70;;;;;;5069616;28;20734;-56
2021/09/15 07:03:14;;;;;;;13.68;8.07;;;17.50;50.70;;;;;;5068920;28;20234;-47
2021/09/15 07:05:44;;;;;;;12.50;7.80;;;17.50;50.70;;;;;;5067831;28;20583;-54
2021/09/15 07:08:14;;;;;;;11.02;7.35;;;17.50;50.70;;;;;;5069258;28;20244;-54
2021/09/15 07:10:43;;;;;;;14.68;7.95;;;17.50;50.70;;;;;;5066977;28;20726;-54
2021/09/15 07:13:14;;;;;;;11.95;7.05;;;17.50;50.70;;;;;;5067849;28;20249;-55
2021/09/15 07:15:44;;;;;;;12.70;7.15;;;17.40;50.70;;;;;;5053187;28;20445;-50
2021/09/15 07:18:14;;;;;;;11.82;6.75;;;17.40;50.70;;;;;;5061913;28;20210;-55
2021/09/15 07:20:44;;;;;;;11.13;7.05;;;17.40;50.70;;;;;;5068470;28;20262;-52
2021/09/15 07:23:14;;;;;;;9.73;7.18;;;17.30;50.70;;;;;;5072959;28;20663;-51
2021/09/15 07:25:43;;;;;;;9.90;6.68;;;17.30;50.70;;;;;;5072030;28;20312;-56
2021/09/15 07:28:14;;;;;;;11.02;6.70;;;17.30;50.70;;;;;;5072499;28;20203;-50
2021/09/15 07:30:44;;;;;;;9.63;6.03;;;17.20;50.60;;;;;;5072416;28;20280;-51
2021/09/15 07:33:14;;;;;;;9.35;6.60;;;17.30;50.70;;;;;;5071597;28;20628;-53
2021/09/15 07:35:44;;;;;;;13.73;7.10;;;17.20;50.60;;;;;;5071786;28;20241;-48
2021/09/15 07:38:13;;;;;;;8.50;6.68;;;17.20;50.60;;;;;;5071368;28;20311;-54
2021/09/15 07:40:43;;;;;;;12.02;7.10;;;17.20;50.70;;;;;;5071446;28;20309;-46
2021/09/15 07:43:14;;;;;;;11.13;6.72;;;17.10;50.60;;;;;;5070595;28;20217;-53
2021/09/15 07:45:44;;;;;;;13.27;6.68;;;17.10;50.70;;;;;;5069861;28;20306;-53
2021/09/15 07:48:14;;;;;;;11.90;6.72;;;17.10;50.80;;;;;;5072431;28;20246;-51
2021/09/15 07:50:44;;;;;;;12.52;6.78;;;17.10;50.80;;;;;;5071928;28;20223;-49
2021/09/15 07:53:13;;;;;;;8.55;6.55;;;17.10;50.80;;;;;;5072039;28;20690;-51
2021/09/15 07:55:43;;;;;;;10.82;6.63;;;17.10;51.00;;;;;;5070612;28;20202;-46
2021/09/15 07:58:14;;;;;;;9.90;5.97;;;17.10;51.70;;;;;;5072030;28;20634;-57
2021/09/15 08:00:45;;;;;;;10.00;6.65;;;17.00;51.00;;;;;;5072215;28;20227;-53
2021/09/15 08:03:15;;;;;;;10.05;6.13;;;17.00;51.00;;;;;;5071584;28;20242;-51
2021/09/15 08:05:45;;;;;;;9.70;6.13;;;17.00;51.00;;;;;;5071306;28;20600;-52
2021/09/15 08:08:14;;;;;;;13.88;6.38;;;17.00;51.00;;;;;;5071900;28;20721;-52
2021/09/15 08:10:44;;;;;;;8.68;5.97;;;16.90;50.90;;;;;;5071218;28;20274;-48
2021/09/15 08:13:15;;;;;;;10.38;5.57;;;16.90;50.90;;;;;;5070034;28;20690;-46
2021/09/15 08:15:45;;;;;;;8.45;5.07;;;16.90;50.90;;;;;;5071308;28;20337;-50
2021/09/15 08:18:15;;;;;;;8.05;5.63;;;16.90;50.90;;;;;;5070780;28;20238;-55
2021/09/15 08:20:46;;;;;;;6.72;5.05;;;16.80;50.90;;;;;;5072206;28;20226;-55
2021/09/15 08:23:17;;;;;;;10.95;5.63;;;16.80;50.90;;;;;;5071934;28;20191;-53
2021/09/15 08:25:47;;;;;;;9.35;5.50;;;16.80;50.90;;;;;;5071358;28;20230;-53
2021/09/15 08:28:18;;;;;;;8.02;5.38;;;16.80;50.90;;;;;;5071554;28;20238;-52
2021/09/15 08:30:47;;;;;;;8.57;5.20;;;16.70;50.90;;;;;;5071700;28;20269;-51
2021/09/15 08:33:17;;;;;;;6.63;4.80;;;16.70;50.90;;;;;;5070481;28;20242;-48
2021/09/15 08:35:47;;;;;;;8.50;4.88;;;16.70;50.90;;;;;;5070812;28;20257;-55
2021/09/15 08:38:17;;;;;;;6.43;4.43;;;16.70;50.90;;;;;;5067937;28;20310;-49
2021/09/15 08:40:46;;;;;;;7.25;4.63;;;16.60;50.90;;;;;;5068944;28;20757;-48
2021/09/15 08:43:17;;;;;;;6.45;4.35;;;16.60;50.80;;;;;;5071578;28;20199;-51
2021/09/15 08:45:47;;;;;;;8.27;4.60;;;16.60;50.90;;;;;;5069991;28;20257;-49
2021/09/15 08:48:21;;;;;;;6.22;4.30;;;16.50;50.80;;;;;;5071622;28;20203;-52
2021/09/15 08:50:51;;;;;;;5.97;4.50;;;16.50;50.80;;;;;;5070458;28;20314;-52
2021/09/15 08:53:20;;;;;;;7.75;4.63;;;16.50;50.90;;;;;;5071294;28;20202;-51
2021/09/15 08:55:50;;;;;;;4.93;3.92;;;16.50;50.90;;;;;;5068995;28;20356;-52
2021/09/15 08:58:21;;;;;;;5.40;4.05;;;16.40;50.90;;;;;;5071358;28;20241;-45
2021/09/15 09:00:51;;;;;;;5.45;4.07;;;16.40;50.90;;;;;;5071260;28;20226;-52
2021/09/15 09:03:21;;;;;;;5.07;4.00;;;16.40;50.90;;;;;;5070525;28;20694;-54
2021/09/15 09:05:50;;;;;;;6.00;4.05;;;16.30;50.90;;;;;;5054563;28;20262;-56
2021/09/15 09:08:25;;;;;;;6.53;4.10;;;16.30;51.00;;;;;;5050910;28;20246;-47
2021/09/15 09:10:55;;;;;;;8.60;4.13;;;16.30;51.00;;;;;;5070029;28;20268;-49
2021/09/15 09:13:26;;;;;;;5.80;3.95;;;16.30;51.00;;;;;;5068330;28;20242;-54
2021/09/15 09:15:56;;;;;;;6.93;4.00;;;16.30;51.00;;;;;;5071065;28;20249;-49
2021/09/15 09:18:26;;;;;;;5.28;3.58;;;16.20;50.90;;;;;;5067972;28;20215;-51
2021/09/15 09:20:56;;;;;;;7.97;4.00;;;16.20;51.00;;;;;;5069532;28;20763;-55
2021/09/15 09:23:25;;;;;;;6.45;3.60;;;16.20;51.00;;;;;;5070810;28;20238;-45
2021/09/15 09:25:55;;;;;;;6.40;3.72;;;16.20;51.00;;;;;;5069731;28;20261;-51
2021/09/15 09:28:31;;;;;;;5.80;3.53;;;16.10;50.90;;;;;;5070581;28;20286;-50
2021/09/15 09:31:01;;;;;;;4.95;3.70;;;16.10;50.90;;;;;;5069081;28;20218;-51
2021/09/15 09:33:31;;;;;;;5.13;3.40;;;16.10;50.90;;;;;;5070955;28;20253;-50
2021/09/15 09:36:02;;;;;;;5.78;3.72;;;16.00;50.90;;;;;;5052206;28;20291;-54
2021/09/15 09:38:32;;;;;;;6.63;3.80;;;16.10;51.00;;;;;;5049629;28;20219;-52
2021/09/15 09:41:06;;;;;;;5.68;3.95;;;16.00;51.00;;;;;;5049776;28;20223;-52
2021/09/15 09:43:38;;;;;;;4.53;3.15;;;16.00;51.00;;;;;;5049982;28;20195;-50
2021/09/15 09:46:07;;;;;;;5.22;3.60;;;16.00;51.00;;;;;;5068357;28;20679;-52
2021/09/15 09:48:42;;;;;;;4.25;3.40;;;15.90;51.00;;;;;;5070294;28;20254;-52
2021/09/15 09:51:28;;;;;;;4.93;3.05;;;15.90;51.00;;;;;;5070387;28;20788;-51
2021/09/15 09:54:15;;;;;;;6.30;3.08;;;15.90;51.10;;;;;;5070598;28;20345;-50
2021/09/15 09:56:45;;;;;;;4.50;3.15;;;15.90;51.10;;;;;;5069340;28;20402;-46
2021/09/15 09:59:16;;;;;;;4.65;2.92;;;15.90;51.10;;;;;;5069487;28;20264;-46
2021/09/15 10:01:47;;;;;;;5.15;3.13;;;15.80;51.10;;;;;;5070333;28;20319;-55
2021/09/15 10:04:17;;;;;;;4.75;2.95;;;15.80;51.10;;;;;;5068921;28;20202;-47
2021/09/15 10:06:47;;;;;;;5.20;3.20;;;15.80;51.10;;;;;;5069797;28;20237;-46
2021/09/15 10:09:17;;;;;;;4.20;2.95;;;15.80;51.10;;;;;;5069397;28;20303;-48
2021/09/15 10:11:47;;;;;;;5.32;3.20;;;15.70;51.10;;;;;;5070554;28;20269;-49
2021/09/15 10:14:18;;;;;;;7.00;3.10;;;15.70;51.10;;;;;;5069466;28;20237;-46
2021/09/15 10:16:48;;;;;;;5.90;2.78;;;15.70;51.10;;;;;;5069944;28;20218;-54
2021/09/15 10:19:18;;;;;;;5.20;2.95;;;15.60;51.10;;;;;;5069332;28;20238;-50
2021/09/15 10:21:56;;;;;;;4.53;2.75;;;15.70;51.20;;;;;;5068567;28;20218;-51
2021/09/15 10:24:40;;;;;;;6.47;3.05;;;15.60;51.10;;;;;;5065324;28;20203;-48
2021/09/15 10:27:10;;;;;;;5.07;2.90;;;15.60;51.20;;;;;;5062127;28;20278;-54
2021/09/15 10:29:42;;;;;;;4.53;2.85;;;15.60;51.20;;;;;;5069750;28;20211;-53
2021/09/15 10:32:12;;;;;;;6.25;3.13;;;15.60;51.20;;;;;;5069803;28;20265;-49
2021/09/15 10:35:02;;;;;;;5.63;3.60;;;15.60;51.20;;;;;;5067581;28;20242;-52
2021/09/15 10:37:52;;;;;;;3.67;2.90;;;15.50;51.20;;;;;;5062628;28;20297;-51
2021/09/15 10:40:38;;;;;;;5.03;3.03;;;15.50;51.20;;;;;;5069534;28;20214;-54
2021/09/15 10:43:22;;;;;;;5.22;3.30;;;15.50;51.20;;;;;;5068465;28;20246;-58
2021/09/15 10:45:59;;;;;;;6.10;2.88;;;15.50;51.20;;;;;;5067962;28;20276;-52
2021/09/15 10:48:30;;;;;;;4.80;3.03;;;15.50;51.20;;;;;;5068470;28;20677;-49
2021/09/15 10:50:59;;;;;;;6.40;3.03;;;15.40;51.20;;;;;;5069255;28;20246;-56
2021/09/15 10:53:33;;;;;;;3.92;2.90;;;15.40;51.90;;;;;;5069160;28;20570;-52
2021/09/15 10:56:03;;;;;;;5.47;2.90;;;15.40;51.30;;;;;;5069027;28;20733;-54
2021/09/15 10:58:34;;;;;;;5.35;3.20;;;15.40;51.30;;;;;;5069499;28;20340;-55
2021/09/15 11:01:06;;;;;;;6.38;3.60;;;15.30;51.20;;;;;;5085896;22;20694;-57
2021/09/15 11:03:38;;;;;;;4.60;3.08;;;15.30;51.30;;;;;;5068759;28;20457;-54
2021/09/15 11:06:23;;;;;;;6.00;3.30;;;15.30;51.30;;;;;;5067477;28;20525;-57
2021/09/15 11:08:53;;;;;;;5.50;2.85;;;15.20;51.20;;;;;;5069165;28;20696;-57
2021/09/15 11:11:50;;;;;;;5.43;2.92;;;15.20;51.20;;;;;;5068073;28;20251;-56
2021/09/15 11:18:32;;;;;;;5.35;3.17;;;15.20;51.20;;;;;;5051587;28;20203;-58
2021/09/15 11:21:24;;;;;;;4.68;2.80;;;15.20;51.20;;;;;;5058037;28;20228;-48
2021/09/15 11:24:46;;;;;;;4.20;3.00;;;15.20;51.20;;;;;;5049443;28;20883;-49
2021/09/15 11:34:24;;;;;;;4.20;2.92;;;15.10;51.30;;;;;;5048960;28;20656;-52
2021/09/15 11:43:32;;;;;;;4.70;3.40;;;15.00;51.30;;;;;;5049521;28;20290;-49
2021/09/15 11:47:08;;;;;;;5.93;3.17;;;15.00;51.30;;;;;;5047184;28;20223;-54
2021/09/15 11:56:45;;;;;;;5.25;3.53;;;14.90;51.30;;;;;;5049233;28;20203;-43
2021/09/15 12:02:19;;;;;;;4.82;2.95;;;14.80;51.20;;;;;;5087726;28;20229;-50
2021/09/15 12:04:49;;;;;;;4.43;3.03;;;14.80;51.30;;;;;;5089693;28;20658;-46
2021/09/15 12:07:18;;;;;;;3.85;2.95;;;14.80;51.30;;;;;;5089898;28;20245;-47
2021/09/15 12:09:49;;;;;;;5.53;3.15;;;14.80;51.40;;;;;;5092836;28;20246;-46
2021/09/15 12:12:19;;;;;;;3.92;3.00;;;14.80;51.40;;;;;;5092028;28;20324;-47
2021/09/15 12:14:51;;;;;;;4.85;3.10;;;14.70;51.30;;;;;;5092618;28;20233;-45
2021/09/15 12:17:20;;;;;;;4.90;2.65;;;14.70;51.30;;;;;;5092940;28;20197;-52
2021/09/15 12:19:51;;;;;;;4.20;2.83;;;14.70;51.30;;;;;;5092649;28;20670;-50
2021/09/15 12:22:22;;;;;;;3.88;2.75;;;14.70;51.40;;;;;;5092156;28;20574;-48
2021/09/15 12:25:06;;;;;;;5.45;3.38;;;14.60;51.30;;;;;;5092424;28;20210;-48
2021/09/15 12:27:36;;;;;;;5.20;3.05;;;14.60;51.30;;;;;;5092610;28;20248;-49
2021/09/15 12:30:07;;;;;;;3.53;2.58;;;14.60;51.30;;;;;;5092452;28;20693;-49
2021/09/15 12:32:37;;;;;;;5.78;3.20;;;14.60;51.30;;;;;;5092626;28;20251;-45
2021/09/15 12:35:08;;;;;;;3.17;2.50;;;14.60;51.30;;;;;;5092637;28;20206;-51
2021/09/15 12:37:41;;;;;;;4.05;2.92;;;14.60;51.30;;;;;;5092208;28;20263;-51
2021/09/15 12:40:18;;;;;;;4.70;2.85;;;14.60;51.30;;;;;;5092429;28;20257;-46
2021/09/15 12:42:59;;;;;;;4.70;2.38;;;14.60;51.30;;;;;;5092388;28;20236;-48
2021/09/15 12:45:29;;;;;;;5.05;2.92;;;14.50;51.30;;;;;;5092731;28;20754;-45
2021/09/15 12:47:59;;;;;;;5.15;3.17;;;14.50;51.30;;;;;;5091931;28;20241;-50
2021/09/15 12:50:29;;;;;;;4.63;3.00;;;14.50;51.30;;;;;;5091632;28;20333;-48
2021/09/15 12:53:06;;;;;;;6.63;2.90;;;14.50;51.30;;;;;;5091734;28;20275;-47
2021/09/15 12:55:42;;;;;;;3.55;2.88;;;14.50;51.30;;;;;;5091965;28;20293;-45
2021/09/15 12:58:12;;;;;;;4.05;2.92;;;14.40;51.30;;;;;;5091674;28;20206;-51
2021/09/15 13:00:45;;;;;;;3.35;2.50;;;14.40;51.30;;;;;;5092269;28;20342;-45
2021/09/15 13:03:15;;;;;;;4.50;3.00;;;14.40;51.30;;;;;;5092112;28;20202;-53
2021/09/15 13:05:45;;;;;;;4.38;2.85;;;14.40;51.30;;;;;;5091971;28;20261;-51
2021/09/15 13:08:21;;;;;;;5.97;3.50;;;14.40;51.30;;;;;;5091862;28;20684;-46
2021/09/15 13:10:52;;;;;;;3.90;2.60;;;14.30;51.30;;;;;;5092511;28;20265;-51
2021/09/15 13:13:22;;;;;;;4.13;2.53;;;14.30;51.30;;;;;;5092190;28;20661;-48
2021/09/15 13:15:52;;;;;;;4.65;2.75;;;14.30;51.30;;;;;;5092118;28;20209;-50
2021/09/15 13:18:22;;;;;;;4.13;2.67;;;14.30;51.30;;;;;;5091288;28;20237;-49
2021/09/15 13:20:52;;;;;;;4.78;2.85;;;14.30;51.30;;;;;;5090310;28;20283;-50
2021/09/15 13:23:21;;;;;;;3.90;2.70;;;14.30;51.30;;;;;;5091916;28;20356;-53
2021/09/15 13:25:52;;;;;;;4.53;2.70;;;14.20;51.20;;;;;;5091730;28;20761;-49
2021/09/15 13:28:22;;;;;;;3.65;2.33;;;14.30;51.30;;;;;;5091736;28;20248;-51
2021/09/15 13:30:52;;;;;;;3.38;2.42;;;14.30;51.40;;;;;;5091789;28;20233;-48
2021/09/15 13:33:22;;;;;;;4.00;2.63;;;14.20;51.30;;;;;;5091957;28;20206;-49
2021/09/15 13:35:51;;;;;;;3.38;2.40;;;14.20;51.30;;;;;;5091867;28;20228;-51
2021/09/15 13:38:21;;;;;;;4.35;2.33;;;14.20;51.40;;;;;;5091452;28;20233;-49
2021/09/15 13:40:52;;;;;;;3.58;2.38;;;14.20;51.40;;;;;;5091573;28;20289;-45
2021/09/15 13:43:22;;;;;;;3.53;2.05;;;14.10;51.40;;;;;;5091849;28;20574;-47